Time;durP1;ratioP1;P1;durP2;ratioP2;P2;SDS_P1;SDS_P2;PMS_P1;PMS_P2;Temp;Humidity;BMP_temperature;BMP_pressure;BME280_temperature;BME280_humidity;BME280_pressure;Samples;Min_cycle;Max_cycle;Signal;HPM_P1;HPM_P2
2022/11/27 00:01:19;;;;;;;65.92;24.92;;;;;;;1.17;100.00;100190.78;2247548;79;20981;-58
2022/11/27 00:04:19;;;;;;;74.25;30.12;;;;;;;1.31;100.00;100195.09;2243063;79;20973;-59
2022/11/27 00:07:20;;;;;;;72.75;29.32;;;;;;;1.39;100.00;100198.51;2242727;79;21131;-58
2022/11/27 00:10:20;;;;;;;73.90;29.18;;;;;;;1.47;100.00;100190.76;2245380;79;21527;-58
2022/11/27 00:13:21;;;;;;;75.08;29.20;;;;;;;1.54;100.00;100198.48;2243427;79;20970;-58
2022/11/27 00:16:21;;;;;;;68.07;27.62;;;;;;;1.53;100.00;100196.76;2233714;79;21058;-58
2022/11/27 00:19:21;;;;;;;65.05;26.52;;;;;;;1.52;100.00;100198.06;2237514;79;20952;-58
2022/11/27 00:22:22;;;;;;;73.85;28.67;;;;;;;1.60;100.00;100193.73;2224128;79;21044;-58
2022/11/27 00:25:23;;;;;;;69.92;26.20;;;;;;;1.56;100.00;100192.86;2233825;79;21516;-58
2022/11/27 00:28:23;;;;;;;77.87;28.42;;;;;;;1.54;100.00;100195.05;2244529;79;20984;-58
2022/11/27 00:31:26;;;;;;;73.75;27.87;;;;;;;1.49;100.00;100191.60;2237345;79;20992;-59
2022/11/27 00:34:26;;;;;;;67.87;27.58;;;;;;;1.61;100.00;100187.70;2208929;79;21084;-58
2022/11/27 00:37:26;;;;;;;72.32;27.15;;;;;;;1.70;100.00;100189.41;2233650;79;21101;-58
2022/11/27 00:40:27;;;;;;;75.70;29.52;;;;;;;1.78;100.00;100189.37;2233932;79;21044;-58
2022/11/27 00:43:27;;;;;;;74.70;27.67;;;;;;;1.73;100.00;100190.69;2227498;79;21041;-59
2022/11/27 00:46:28;;;;;;;73.07;29.00;;;;;;;1.81;100.00;100195.41;2239323;79;20977;-58
2022/11/27 00:49:28;;;;;;;74.00;31.50;;;;;;;1.83;100.00;100194.95;2239688;79;21466;-58
2022/11/27 00:52:29;;;;;;;75.47;30.40;;;;;;;1.78;100.00;100198.42;2230048;79;21518;-58
2022/11/27 00:55:30;;;;;;;81.57;30.68;;;;;;;1.81;100.00;100196.70;2229806;79;21029;-59
2022/11/27 00:58:30;;;;;;;73.55;28.77;;;;;;;1.65;100.00;100199.77;2246084;78;21055;-58
2022/11/27 01:01:31;;;;;;;82.82;31.37;;;;;;;1.72;100.00;100197.59;2243359;79;21037;-58
2022/11/27 01:04:31;;;;;;;81.20;30.48;;;;;;;1.72;100.00;100205.36;2232630;79;21013;-58
2022/11/27 01:07:31;;;;;;;81.47;30.85;;;;;;;1.81;100.00;100194.53;2242165;79;21075;-58
2022/11/27 01:10:32;;;;;;;79.60;30.25;;;;;;;1.72;100.00;100197.59;2236198;79;21057;-58
2022/11/27 01:13:33;;;;;;;79.72;28.10;;;;;;;1.73;100.00;100199.73;2238484;79;21496;-58
2022/11/27 01:16:33;;;;;;;75.75;30.40;;;;;;;1.72;100.00;100194.13;2240640;79;21020;-59
2022/11/27 01:19:34;;;;;;;79.00;29.75;;;;;;;1.76;100.00;100198.88;2243569;79;20989;-58
2022/11/27 01:22:34;;;;;;;77.65;30.10;;;;;;;1.75;100.00;100196.70;2238618;79;21032;-58
2022/11/27 01:25:35;;;;;;;81.15;30.57;;;;;;;1.73;100.00;100198.45;2241122;79;21120;-58
2022/11/27 01:28:35;;;;;;;87.10;31.52;;;;;;;1.75;100.00;100197.14;2238412;79;21542;-58
2022/11/27 01:31:36;;;;;;;83.03;31.75;;;;;;;1.65;100.00;100192.42;2231560;78;21542;-58
2022/11/27 01:34:36;;;;;;;82.97;30.88;;;;;;;1.75;100.00;100184.20;2241897;79;20977;-59
2022/11/27 01:37:37;;;;;;;74.22;29.35;;;;;;;1.90;100.00;100186.75;2232526;79;21096;-58
2022/11/27 01:40:38;;;;;;;76.12;29.25;;;;;;;1.88;100.00;100179.41;2241916;79;20976;-58
2022/11/27 01:43:38;;;;;;;77.20;30.20;;;;;;;2.05;100.00;100182.81;2239507;79;21029;-58
2022/11/27 01:46:39;;;;;;;78.00;29.07;;;;;;;2.04;100.00;100180.20;2239250;79;21443;-58
2022/11/27 01:49:39;;;;;;;77.12;29.00;;;;;;;1.85;100.00;100182.02;2234791;79;20929;-58
2022/11/27 01:52:39;;;;;;;76.82;29.45;;;;;;;1.86;100.00;100185.03;2233517;79;20949;-58
2022/11/27 01:55:40;;;;;;;85.05;32.42;;;;;;;2.00;100.00;100189.72;2223801;79;20974;-59
2022/11/27 01:58:40;;;;;;;85.95;32.70;;;;;;;1.94;100.00;100185.87;2222688;79;20999;-58
2022/11/27 02:01:41;;;;;;;87.00;34.20;;;;;;;1.92;100.00;100185.45;2234837;79;20992;-59
2022/11/27 02:04:41;;;;;;;83.35;32.40;;;;;;;1.97;100.00;100187.56;2242223;79;21611;-58
2022/11/27 02:07:42;;;;;;;85.38;32.05;;;;;;;1.95;100.00;100191.45;2245752;79;20966;-58
2022/11/27 02:10:42;;;;;;;81.55;30.00;;;;;;;1.74;100.00;100191.12;2267573;78;20944;-58
2022/11/27 02:13:43;;;;;;;82.33;29.72;;;;;;;1.70;100.00;100199.75;2282265;78;21022;-58
2022/11/27 02:16:44;;;;;;;77.75;30.00;;;;;;;1.65;100.00;100190.72;2275595;77;21056;-58
2022/11/27 02:19:44;;;;;;;80.70;31.15;;;;;;;1.60;100.00;100196.77;2252922;77;20981;-59
2022/11/27 02:22:45;;;;;;;84.20;31.15;;;;;;;1.64;100.00;100199.34;2278222;77;20957;-58
2022/11/27 02:25:45;;;;;;;72.78;27.85;;;;;;;1.56;100.00;100200.63;2287584;77;20985;-58
2022/11/27 02:28:46;;;;;;;70.37;27.22;;;;;;;1.49;100.00;100203.23;2274013;78;21432;-58
2022/11/27 02:31:46;;;;;;;75.57;27.62;;;;;;;1.41;100.00;100207.14;2236789;78;20961;-58
2022/11/27 02:34:46;;;;;;;74.85;28.02;;;;;;;1.39;100.00;100201.09;2244051;79;20966;-58
2022/11/27 02:37:47;;;;;;;75.75;28.70;;;;;;;1.48;100.00;100207.56;2247792;78;20965;-58
2022/11/27 02:40:48;;;;;;;75.12;28.83;;;;;;;1.43;100.00;100216.19;2256097;78;20969;-58
2022/11/27 02:43:48;;;;;;;71.55;27.55;;;;;;;1.40;100.00;100211.03;2238831;79;21027;-59
2022/11/27 02:46:49;;;;;;;72.00;26.93;;;;;;;1.35;100.00;100213.18;2245017;79;21510;-58
2022/11/27 02:49:49;;;;;;;73.72;28.00;;;;;;;1.28;100.00;100212.76;2244661;79;21003;-58
2022/11/27 02:52:50;;;;;;;66.62;26.15;;;;;;;1.36;100.00;100212.73;2282993;78;21079;-58
2022/11/27 02:55:50;;;;;;;72.32;26.10;;;;;;;1.36;100.00;100215.33;2275035;77;20929;-58
2022/11/27 02:58:51;;;;;;;72.65;29.45;;;;;;;1.38;100.00;100211.03;2280584;77;20968;-58
2022/11/27 03:01:51;;;;;;;76.53;28.80;;;;;;;1.44;100.00;100214.02;2285913;77;21049;-58
2022/11/27 03:04:52;;;;;;;75.62;29.42;;;;;;;1.48;100.00;100220.91;2222603;79;21487;-58
2022/11/27 03:07:52;;;;;;;73.15;28.70;;;;;;;1.56;100.00;100221.76;2245356;79;21011;-58
2022/11/27 03:10:52;;;;;;;78.12;28.20;;;;;;;1.73;100.00;100223.02;2237554;79;21028;-58
2022/11/27 03:13:53;;;;;;;74.82;29.30;;;;;;;1.67;100.00;100217.88;2241783;79;21016;-58
2022/11/27 03:16:54;;;;;;;82.27;31.75;;;;;;;1.66;100.00;100222.61;2277901;77;20976;-58
2022/11/27 03:19:54;;;;;;;78.65;30.75;;;;;;;1.64;100.00;100220.02;2294002;78;21068;-59
2022/11/27 03:22:55;;;;;;;80.25;29.95;;;;;;;1.64;100.00;100217.85;2277556;77;21035;-58
2022/11/27 03:25:55;;;;;;;81.17;31.87;;;;;;;1.79;100.00;100216.97;2279535;77;21511;-58
2022/11/27 03:28:56;;;;;;;73.47;29.92;;;;;;;1.60;100.00;100223.92;2280903;78;21515;-58
2022/11/27 03:31:56;;;;;;;75.70;29.37;;;;;;;1.69;100.00;100230.36;2281029;77;21053;-59
2022/11/27 03:34:57;;;;;;;75.00;30.23;;;;;;;1.71;100.00;100221.73;2287975;78;20989;-59
2022/11/27 03:37:57;;;;;;;75.83;30.88;;;;;;;1.95;100.00;100222.95;2286945;78;20969;-58
2022/11/27 03:40:58;;;;;;;75.10;28.50;;;;;;;1.89;100.00;100226.42;2231015;79;21008;-58
2022/11/27 03:43:59;;;;;;;76.95;29.75;;;;;;;1.72;100.00;100218.70;2242836;79;21469;-58
2022/11/27 03:46:59;;;;;;;72.92;30.10;;;;;;;1.79;100.00;100225.58;2223825;79;21574;-58
2022/11/27 03:50:00;;;;;;;71.62;29.35;;;;;;;1.77;100.00;100226.44;2217328;79;21471;-58
2022/11/27 03:53:00;;;;;;;76.62;29.60;;;;;;;1.79;100.00;100221.70;2237117;79;20989;-58
2022/11/27 03:56:00;;;;;;;74.15;28.90;;;;;;;1.88;100.00;100217.81;2236799;79;20993;-58
2022/11/27 03:59:01;;;;;;;72.65;30.50;;;;;;;1.97;100.00;100214.73;2240959;79;21012;-58
2022/11/27 04:02:01;;;;;;;71.53;28.25;;;;;;;2.14;100.00;100215.56;2220470;79;20977;-59
2022/11/27 04:05:02;;;;;;;68.33;27.95;;;;;;;2.17;100.00;100222.42;2225466;79;20965;-58
2022/11/27 04:08:02;;;;;;;78.87;29.80;;;;;;;2.17;100.00;100215.95;2233008;79;21488;-58
2022/11/27 04:11:03;;;;;;;69.82;29.07;;;;;;;2.14;100.00;100213.39;2216580;79;21617;-58
2022/11/27 04:14:03;;;;;;;77.03;29.95;;;;;;;2.22;100.00;100211.63;2235502;79;21009;-58
2022/11/27 04:17:03;;;;;;;80.10;32.42;;;;;;;2.25;100.00;100215.49;2240015;79;21079;-58
2022/11/27 04:20:04;;;;;;;73.35;30.57;;;;;;;2.30;100.00;100205.98;2229417;79;21004;-58
2022/11/27 04:23:04;;;;;;;66.33;27.32;;;;;;;2.40;100.00;100210.25;2234384;79;20990;-59
2022/11/27 04:26:05;;;;;;;75.05;28.62;;;;;;;2.39;100.00;100208.52;2236264;79;21044;-59
2022/11/27 04:29:05;;;;;;;68.35;27.77;;;;;;;2.47;100.00;100211.08;2240889;79;21524;-58
2022/11/27 04:32:05;;;;;;;70.10;28.60;;;;;;;2.49;100.00;100209.78;2231394;79;20976;-58
2022/11/27 04:35:06;;;;;;;71.07;28.12;;;;;;;2.52;100.00;100215.78;2220533;79;21052;-58
2022/11/27 04:38:07;;;;;;;69.90;27.60;;;;;;;2.47;100.00;100218.85;2227691;79;20988;-58
2022/11/27 04:41:07;;;;;;;71.00;26.70;;;;;;;2.54;100.00;100219.66;2217449;79;20977;-59
2022/11/27 04:44:08;;;;;;;67.95;26.73;;;;;;;2.52;100.00;100209.75;2240814;79;20969;-58
2022/11/27 04:47:08;;;;;;;65.05;26.52;;;;;;;2.49;100.00;100210.63;2236202;79;21508;-58
2022/11/27 04:50:09;;;;;;;70.22;26.75;;;;;;;2.59;100.00;100215.33;2225010;79;20981;-58
2022/11/27 04:53:09;;;;;;;67.60;26.02;;;;;;;2.70;100.00;100216.12;2227606;79;21072;-58
2022/11/27 04:56:10;;;;;;;68.75;27.07;;;;;;;2.67;100.00;100216.56;2224990;79;21040;-58
2022/11/27 04:59:10;;;;;;;65.65;25.57;;;;;;;2.66;100.00;100210.53;2236837;79;21016;-59
2022/11/27 05:02:11;;;;;;;69.27;28.23;;;;;;;2.61;100.00;100209.69;2243592;79;21000;-58
2022/11/27 05:05:11;;;;;;;71.80;28.38;;;;;;;2.66;100.00;100206.64;2246895;79;21607;-58
2022/11/27 05:08:12;;;;;;;72.87;29.92;;;;;;;2.50;100.00;100206.30;2240394;79;21004;-58
2022/11/27 05:11:12;;;;;;;79.07;32.75;;;;;;;2.61;100.00;100196.73;2224205;79;20981;-59
2022/11/27 05:14:14;;;;;;;73.78;30.48;;;;;;;2.62;100.00;100199.75;2241314;79;20953;-58
2022/11/27 05:17:15;;;;;;;86.02;37.50;;;;;;;2.62;100.00;100206.67;2218625;79;21051;-58
2022/11/27 05:20:15;;;;;;;88.15;35.38;;;;;;;2.52;100.00;100195.51;2235600;79;20970;-58
2022/11/27 05:23:15;;;;;;;76.72;32.08;;;;;;;2.49;100.00;100202.86;2223467;79;21019;-58
2022/11/27 05:26:16;;;;;;;71.33;30.27;;;;;;;2.47;100.00;100199.43;2225590;79;20979;-58
2022/11/27 05:29:16;;;;;;;71.05;29.12;;;;;;;2.54;100.00;100200.23;2230026;78;21000;-58
2022/11/27 05:32:17;;;;;;;72.00;29.42;;;;;;;2.57;100.00;100211.86;2225107;79;21007;-59
2022/11/27 05:35:17;;;;;;;66.37;28.70;;;;;;;2.64;100.00;100207.06;2224982;79;21463;-58
2022/11/27 05:38:18;;;;;;;67.60;27.90;;;;;;;2.68;100.00;100210.06;2228527;79;20985;-58
2022/11/27 05:41:18;;;;;;;67.78;26.93;;;;;;;2.68;100.00;100212.66;2221623;79;20953;-58
2022/11/27 05:44:18;;;;;;;75.75;27.25;;;;;;;2.69;100.00;100216.13;2223364;79;20949;-58
2022/11/27 05:47:19;;;;;;;69.47;29.10;;;;;;;2.68;100.00;100214.41;2223008;79;20992;-59
2022/11/27 05:50:19;;;;;;;66.67;28.62;;;;;;;2.64;100.00;100218.73;2214647;79;20980;-58
2022/11/27 05:53:20;;;;;;;63.85;26.37;;;;;;;2.75;100.00;100219.52;2230038;79;21024;-58
2022/11/27 05:56:20;;;;;;;66.90;27.00;;;;;;;2.80;100.00;100214.75;2216428;79;21008;-59
2022/11/27 05:59:21;;;;;;;66.07;28.10;;;;;;;2.68;100.00;100215.70;2240168;78;20981;-58
2022/11/27 06:02:22;;;;;;;64.95;26.42;;;;;;;2.70;100.00;100214.83;2230262;79;21463;-58
2022/11/27 06:05:22;;;;;;;67.95;29.02;;;;;;;2.63;100.00;100209.67;2233087;79;21044;-58
2022/11/27 06:08:23;;;;;;;68.80;28.17;;;;;;;2.70;100.00;100204.88;2242370;79;21000;-58
2022/11/27 06:11:23;;;;;;;74.42;28.20;;;;;;;2.73;100.00;100199.25;2239445;79;20985;-59
2022/11/27 06:14:24;;;;;;;69.27;28.17;;;;;;;2.93;100.00;100202.11;2242654;79;20984;-58
2022/11/27 06:17:24;;;;;;;75.35;29.27;;;;;;;2.94;100.00;100198.24;2231978;79;21622;-58
2022/11/27 06:20:25;;;;;;;71.22;29.45;;;;;;;2.86;100.00;100200.02;2220755;79;20997;-58
2022/11/27 06:23:25;;;;;;;71.22;30.55;;;;;;;2.86;100.00;100199.14;2220655;79;21011;-59
2022/11/27 06:26:26;;;;;;;71.28;29.57;;;;;;;2.69;100.00;100194.11;2222840;79;21020;-59
2022/11/27 06:29:26;;;;;;;70.03;29.10;;;;;;;2.64;100.00;100200.59;2213662;79;20977;-58
2022/11/27 06:32:27;;;;;;;75.95;29.02;;;;;;;2.67;100.00;100208.38;2225130;79;21514;-58
2022/11/27 06:35:27;;;;;;;73.07;29.30;;;;;;;2.62;100.00;100200.20;2224983;79;21558;-58
2022/11/27 06:38:28;;;;;;;69.45;27.65;;;;;;;2.54;100.00;100201.52;2234271;79;20989;-58
2022/11/27 06:41:28;;;;;;;70.32;28.42;;;;;;;2.40;100.00;100194.70;2226542;79;21122;-58
2022/11/27 06:44:29;;;;;;;68.50;28.10;;;;;;;2.54;100.00;100193.75;2235474;79;21016;-58
2022/11/27 06:47:29;;;;;;;71.10;27.27;;;;;;;2.64;100.00;100198.00;2205454;80;20956;-58
2022/11/27 06:50:29;;;;;;;66.05;26.65;;;;;;;2.71;100.00;100201.42;2234070;79;21484;-58
2022/11/27 06:53:30;;;;;;;64.85;26.52;;;;;;;2.65;100.00;100205.36;2230311;79;21551;-58
2022/11/27 06:56:30;;;;;;;69.25;27.82;;;;;;;2.60;100.00;100204.95;2226565;79;21015;-59
2022/11/27 06:59:31;;;;;;;63.92;26.97;;;;;;;2.57;100.00;100204.97;2240845;79;21064;-58
2022/11/27 07:02:32;;;;;;;61.98;25.32;;;;;;;2.79;100.00;100199.64;2222006;79;21016;-58
2022/11/27 07:05:33;;;;;;;65.83;25.95;;;;;;;2.77;100.00;100194.89;2231597;79;21052;-58
2022/11/27 07:08:34;;;;;;;61.65;25.57;;;;;;;2.87;100.00;100192.66;2230459;79;21487;-58
2022/11/27 07:11:34;;;;;;;63.23;26.07;;;;;;;3.10;100.00;100185.13;2216762;79;20991;-58
2022/11/27 07:14:35;;;;;;;63.08;26.77;;;;;;;3.17;100.00;100185.95;2225547;79;20961;-59
2022/11/27 07:17:36;;;;;;;62.48;26.75;;;;;;;3.17;100.00;100191.98;2215488;79;20966;-58
2022/11/27 07:20:37;;;;;;;77.50;29.85;;;;;;;3.19;100.00;100194.14;2224451;79;21067;-58
2022/11/27 07:23:38;;;;;;;68.95;29.32;;;;;;;3.11;100.00;100197.23;2222064;79;20973;-58
2022/11/27 07:26:38;;;;;;;95.65;44.77;;;;;;;3.07;100.00;100197.67;2220683;79;21013;-58
2022/11/27 07:29:39;;;;;;;97.57;45.45;;;;;;;3.06;100.00;100200.28;2221901;79;21071;-58
2022/11/27 07:32:39;;;;;;;87.92;38.15;;;;;;;3.14;100.00;100189.87;2226641;79;21044;-58
2022/11/27 07:35:40;;;;;;;80.65;34.25;;;;;;;3.11;100.00;100194.64;2215434;79;20989;-58
2022/11/27 07:38:40;;;;;;;76.20;32.67;;;;;;;3.26;100.00;100206.59;2221920;79;20992;-58
2022/11/27 07:41:40;;;;;;;71.72;30.15;;;;;;;3.35;100.00;100210.42;2220987;79;21023;-58
2022/11/27 07:44:41;;;;;;;76.55;33.75;;;;;;;3.33;100.00;100212.59;2230226;79;21467;-58
2022/11/27 07:47:41;;;;;;;77.95;32.55;;;;;;;3.43;100.00;100216.82;2227910;79;21021;-58
2022/11/27 07:50:42;;;;;;;73.10;31.27;;;;;;;3.54;100.00;100215.44;2235743;79;20980;-58
2022/11/27 07:53:42;;;;;;;133.37;59.10;;;;;;;3.66;100.00;100216.59;2238669;79;21016;-58
2022/11/27 07:56:42;;;;;;;150.55;66.87;;;;;;;3.54;100.00;100212.84;2231566;79;21004;-58
2022/11/27 07:59:43;;;;;;;114.95;51.98;;;;;;;3.37;100.00;100203.47;2233570;79;21017;-58
2022/11/27 08:02:43;;;;;;;84.13;37.33;;;;;;;3.47;100.00;100215.47;2232249;79;20977;-58
2022/11/27 08:05:44;;;;;;;74.00;30.57;;;;;;;3.53;100.00;100214.55;2218981;79;21510;-58
2022/11/27 08:08:45;;;;;;;64.72;29.77;;;;;;;3.75;100.00;100212.61;2236838;79;21005;-58
2022/11/27 08:11:45;;;;;;;69.87;28.50;;;;;;;3.96;100.00;100211.94;2215670;79;20983;-58
2022/11/27 08:14:46;;;;;;;72.12;31.20;;;;;;;3.64;100.00;100217.90;2228121;79;21048;-58
2022/11/27 08:17:46;;;;;;;73.62;33.42;;;;;;;3.84;100.00;100214.70;2220909;79;20992;-60
2022/11/27 08:20:47;;;;;;;79.87;35.52;;;;;;;4.02;100.00;100215.75;2226691;79;21039;-58
2022/11/27 08:23:47;;;;;;;80.67;35.50;;;;;;;4.13;100.00;100211.29;2237485;79;21025;-58
2022/11/27 08:26:48;;;;;;;83.62;40.23;;;;;;;4.12;100.00;100212.19;2223074;79;20946;-58
2022/11/27 08:29:48;;;;;;;83.65;37.98;;;;;;;4.12;100.00;100212.61;2212951;79;20954;-58
2022/11/27 08:32:48;;;;;;;77.20;33.78;;;;;;;3.89;100.00;100217.63;2239151;79;20962;-58
2022/11/27 08:35:49;;;;;;;70.12;32.30;;;;;;;3.79;100.00;100209.53;2231719;79;21037;-58
2022/11/27 08:38:49;;;;;;;75.05;33.02;;;;;;;3.84;100.00;100214.70;2216533;79;21039;-58
2022/11/27 08:41:50;;;;;;;73.30;31.95;;;;;;;3.83;100.00;100215.56;2222280;79;21502;-58
2022/11/27 08:44:50;;;;;;;67.72;31.52;;;;;;;4.03;100.00;100215.33;2215337;79;20972;-58
2022/11/27 08:47:51;;;;;;;78.75;32.63;;;;;;;4.08;100.00;100216.12;2224135;79;21085;-59
2022/11/27 08:50:51;;;;;;;72.15;33.05;;;;;;;4.15;100.00;100209.55;2207052;79;20972;-58
2022/11/27 08:53:51;;;;;;;75.72;31.33;;;;;;;4.12;100.00;100207.41;2221440;79;20992;-59
2022/11/27 08:56:52;;;;;;;74.22;32.17;;;;;;;4.28;100.00;100206.78;2224118;79;21027;-58
2022/11/27 08:59:52;;;;;;;73.65;34.33;;;;;;;4.48;100.00;100209.11;2220696;79;21009;-59
2022/11/27 09:02:53;;;;;;;79.50;35.25;;;;;;;4.47;100.00;100204.36;2242044;79;21532;-59
2022/11/27 09:05:53;;;;;;;78.75;33.95;;;;;;;4.45;100.00;100208.73;2221363;79;20985;-58
2022/11/27 09:08:54;;;;;;;75.70;32.85;;;;;;;4.54;100.00;100212.06;2227643;79;21100;-58
2022/11/27 09:11:54;;;;;;;72.95;32.85;;;;;;;4.58;100.00;100213.29;2233823;79;21079;-58
2022/11/27 09:14:55;;;;;;;71.72;33.13;;;;;;;4.62;100.00;100209.77;2213539;79;20976;-58
2022/11/27 09:17:55;;;;;;;80.55;35.48;;;;;;;4.78;100.00;100213.00;2226701;79;20997;-58
2022/11/27 09:20:56;;;;;;;87.80;42.98;;;;;;;4.79;100.00;100206.08;2222200;79;21522;-58
2022/11/27 09:23:56;;;;;;;89.75;43.08;;;;;;;4.70;100.00;100210.98;2229231;79;21037;-58
2022/11/27 09:26:56;;;;;;;142.43;68.62;;;;;;;4.75;100.00;100214.80;2220090;79;20999;-59
2022/11/27 09:29:57;;;;;;;144.62;66.60;;;;;;;4.68;100.00;100205.80;2228753;79;21083;-58
2022/11/27 09:32:58;;;;;;;110.03;51.73;;;;;;;4.64;100.00;100202.83;2219524;79;20976;-59
2022/11/27 09:35:58;;;;;;;85.35;41.65;;;;;;;4.50;100.00;100200.87;2226674;79;21005;-58
2022/11/27 09:38:59;;;;;;;86.28;38.60;;;;;;;4.57;100.00;100204.22;2221706;79;21486;-59
2022/11/27 09:42:00;;;;;;;76.70;34.73;;;;;;;4.76;100.00;100201.78;2219807;79;21444;-58
2022/11/27 09:45:01;;;;;;;80.67;37.93;;;;;;;4.90;100.00;100205.89;2216963;79;21072;-58
2022/11/27 09:48:01;;;;;;;79.40;35.92;;;;;;;4.87;100.00;100202.92;2225454;79;20998;-60
2022/11/27 09:51:02;;;;;;;83.85;38.40;;;;;;;4.95;100.00;100201.50;2237673;79;20976;-58
2022/11/27 09:54:02;;;;;;;79.50;37.88;;;;;;;4.90;100.00;100207.20;2229797;79;21495;-59
2022/11/27 09:57:03;;;;;;;80.75;38.38;;;;;;;4.67;100.00;100196.28;2227146;79;21554;-59
2022/11/27 10:00:03;;;;;;;72.08;33.90;;;;;;;4.71;100.00;100193.63;2217963;79;20976;-59
2022/11/27 10:03:04;;;;;;;77.00;35.38;;;;;;;4.41;100.00;100195.78;2220784;79;21052;-59
2022/11/27 10:06:04;;;;;;;63.95;29.02;;;;;;;4.38;100.00;100194.08;2222610;79;20961;-59
2022/11/27 10:09:05;;;;;;;72.72;33.83;;;;;;;4.29;100.00;100192.47;2215665;79;20953;-59
2022/11/27 10:12:06;;;;;;;69.32;33.48;;;;;;;4.15;100.00;100197.86;2215114;79;20961;-59
2022/11/27 10:15:06;;;;;;;71.77;33.25;;;;;;;4.21;100.00;100198.23;2211769;79;20976;-59
2022/11/27 10:18:06;;;;;;;76.45;34.08;;;;;;;4.23;100.00;100191.71;2214879;79;20953;-59
2022/11/27 10:21:07;;;;;;;77.05;35.60;;;;;;;4.31;100.00;100188.55;2238371;79;20974;-59
2022/11/27 10:24:08;;;;;;;85.05;39.35;;;;;;;4.43;100.00;100190.14;2215347;79;20949;-59
2022/11/27 10:27:08;;;;;;;81.20;36.85;;;;;;;4.51;100.00;100188.27;2205270;80;20957;-59
2022/11/27 10:30:08;;;;;;;82.17;37.80;;;;;;;4.49;100.00;100187.45;2222226;79;21460;-59
2022/11/27 10:33:09;;;;;;;83.65;39.15;;;;;;;4.28;100.00;100183.40;2231812;79;21004;-59
2022/11/27 10:36:09;;;;;;;90.92;41.73;;;;;;;4.49;100.00;100182.25;2219997;79;20979;-58
2022/11/27 10:39:10;;;;;;;89.90;41.48;;;;;;;4.59;100.00;100176.03;2233131;79;21097;-59
2022/11/27 10:42:11;;;;;;;93.25;43.52;;;;;;;4.77;100.00;100177.51;2232658;79;21043;-59
2022/11/27 10:45:12;;;;;;;100.93;46.97;;;;;;;4.95;100.00;100175.49;2222134;79;21017;-59
2022/11/27 10:48:12;;;;;;;95.50;44.42;;;;;;;5.13;100.00;100166.08;2226897;79;21067;-58
2022/11/27 10:51:13;;;;;;;90.57;44.98;;;;;;;5.30;100.00;100172.72;2222740;79;20997;-58
2022/11/27 10:54:13;;;;;;;99.47;48.17;;;;;;;5.24;100.00;100167.18;2235515;79;20977;-58
2022/11/27 10:57:14;;;;;;;97.25;45.83;;;;;;;5.26;100.00;100161.53;2233583;79;20981;-59
2022/11/27 11:00:14;;;;;;;98.55;46.58;;;;;;;5.31;100.00;100158.84;2226454;79;20989;-58
2022/11/27 11:03:15;;;;;;;93.17;45.45;;;;;;;5.17;100.00;100162.97;2236941;79;21491;-59
2022/11/27 11:06:16;;;;;;;101.78;46.98;;;;;;;5.22;100.00;100159.86;2222434;79;21029;-58
2022/11/27 11:09:16;;;;;;;92.92;45.25;;;;;;;5.19;100.00;100158.16;2228050;79;21045;-58
2022/11/27 11:12:19;;;;;;;96.22;47.58;;;;;;;5.25;100.00;100145.49;2224528;79;20985;-59
2022/11/27 11:15:19;;;;;;;101.97;49.80;;;;;;;5.50;100.00;100137.22;2215674;79;21004;-59
2022/11/27 11:18:20;;;;;;;115.92;59.08;;;;;;;5.70;100.00;100140.31;2232951;79;20992;-58
2022/11/27 11:21:20;;;;;;;104.17;51.80;;;;;;;5.72;100.00;100145.03;2230381;79;21023;-58
2022/11/27 11:24:20;;;;;;;109.83;54.70;;;;;;;5.62;100.00;100149.17;2215377;79;21009;-58
2022/11/27 11:27:21;;;;;;;106.90;52.15;;;;;;;5.72;100.00;100143.73;2227085;79;20985;-58
2022/11/27 11:30:23;;;;;;;106.40;52.47;;;;;;;5.88;100.00;100143.42;2215885;79;21477;-59
2022/11/27 11:33:23;;;;;;;97.82;49.90;;;;;;;5.84;100.00;100141.31;2222716;79;20950;-59
2022/11/27 11:36:24;;;;;;;97.70;49.90;;;;;;;6.03;100.00;100134.45;2215440;79;20996;-58
2022/11/27 11:39:24;;;;;;;117.35;58.28;;;;;;;6.19;100.00;100138.45;2223479;79;20968;-59
2022/11/27 11:42:25;;;;;;;127.92;66.05;;;;;;;6.17;100.00;100129.80;2227043;79;21012;-58
2022/11/27 11:45:25;;;;;;;114.77;59.40;;;;;;;6.28;100.00;100128.27;2232840;79;21545;-58
2022/11/27 11:48:26;;;;;;;136.77;70.30;;;;;;;6.38;100.00;100130.23;2233749;79;21079;-58
2022/11/27 11:51:26;;;;;;;111.92;59.10;;;;;;;6.34;100.00;100120.77;2233137;79;20977;-59
2022/11/27 11:54:27;;;;;;;118.37;59.50;;;;;;;6.25;100.00;100120.53;2233376;79;21033;-58
2022/11/27 11:57:28;;;;;;;112.90;54.58;;;;;;;6.28;100.00;100123.06;2235921;79;20981;-58
2022/11/27 12:00:28;;;;;;;88.37;42.17;;;;;;;6.44;100.00;100124.86;2239242;79;21502;-58
2022/11/27 12:03:28;;;;;;;90.30;46.20;;;;;;;6.39;100.00;100118.89;2242785;79;21566;-59
2022/11/27 12:06:29;;;;;;;81.17;40.15;;;;;;;6.50;100.00;100121.27;2235987;79;21032;-58
2022/11/27 12:09:29;;;;;;;83.72;38.10;;;;;;;6.69;100.00;100122.52;2239606;79;20985;-58
2022/11/27 12:12:31;;;;;;;74.35;36.17;;;;;;;6.69;100.00;100125.58;2237459;79;21017;-58
2022/11/27 12:15:31;;;;;;;72.55;34.38;;;;;;;6.59;100.00;100115.39;2220230;79;20961;-58
2022/11/27 12:18:31;;;;;;;72.45;35.28;;;;;;;6.48;100.00;100110.00;2220649;79;21520;-58
2022/11/27 12:21:32;;;;;;;71.00;34.92;;;;;;;6.42;100.00;100111.00;2230295;79;21637;-58
2022/11/27 12:24:32;;;;;;;71.62;36.38;;;;;;;6.38;100.00;100111.53;2239809;79;21088;-58
2022/11/27 12:27:33;;;;;;;67.27;32.48;;;;;;;6.20;100.00;100103.67;2243485;79;21000;-59
2022/11/27 12:33:37;;;;;;;;;;;;;;;6.53;100.00;100100.33;2196707;79;20968;-58
2022/11/27 12:36:37;;;;;;;81.17;40.95;;;;;;;6.51;100.00;100102.98;2217253;79;20212;-58
2022/11/27 12:39:38;;;;;;;76.22;37.83;;;;;;;6.38;100.00;100102.41;2233897;79;21448;-58
2022/11/27 12:42:38;;;;;;;67.67;31.12;;;;;;;6.32;100.00;100097.34;2236564;79;20977;-58
2022/11/27 12:45:38;;;;;;;71.33;32.70;;;;;;;6.40;100.00;100098.00;2215101;79;20981;-58
2022/11/27 12:52:17;;;;;;;65.57;30.30;;;;;;;6.25;100.00;100099.69;2262072;77;21063;-58
2022/11/27 12:55:17;;;;;;;62.45;28.32;;;;;;;6.05;100.00;100091.02;2279642;77;21008;-58
2022/11/27 12:58:18;;;;;;;57.40;26.12;;;;;;;6.10;100.00;100088.30;2278289;77;21039;-58
2022/11/27 13:01:18;;;;;;;55.75;25.55;;;;;;;6.13;100.00;100085.16;2278163;77;20974;-58
2022/11/27 13:04:18;;;;;;;59.00;26.68;;;;;;;6.24;100.00;100087.08;2288785;78;21515;-58
2022/11/27 13:07:19;;;;;;;56.15;26.52;;;;;;;6.35;100.00;100080.33;2286398;77;20985;-59
2022/11/27 13:10:20;;;;;;;57.13;26.87;;;;;;;6.37;100.00;100083.74;2287174;77;21076;-58
2022/11/27 13:13:21;;;;;;;57.67;26.30;;;;;;;6.23;100.00;100080.61;2283173;77;20999;-58
2022/11/27 13:16:21;;;;;;;52.20;24.55;;;;;;;6.22;100.00;100081.06;2275147;77;20938;-58
2022/11/27 13:19:22;;;;;;;59.27;27.37;;;;;;;6.16;100.00;100078.61;2236130;79;20998;-58
2022/11/27 13:22:26;;;;;;;58.38;27.37;;;;;;;6.06;100.00;100077.95;2233290;79;21538;-58
2022/11/27 13:25:25;;;;;;;57.55;26.68;;;;;;;5.93;100.00;100084.27;2213779;78;21024;-59
2022/11/27 13:28:25;;;;;;;59.08;27.98;;;;;;;5.98;100.00;100082.47;2240384;79;21531;-58
2022/11/27 13:31:25;;;;;;;63.02;27.77;;;;;;;5.97;100.00;100086.38;2233886;79;21500;-59
2022/11/27 13:34:26;;;;;;;72.72;29.10;;;;;;;6.06;100.00;100087.50;2229706;79;20988;-59
2022/11/27 13:37:26;;;;;;;61.05;30.02;;;;;;;5.81;100.00;100084.55;2223389;79;20992;-58
2022/11/27 13:40:27;;;;;;;63.60;28.92;;;;;;;5.70;100.00;100080.44;2289988;77;20972;-58
2022/11/27 13:43:28;;;;;;;66.95;30.17;;;;;;;5.67;100.00;100080.47;2274116;77;21032;-58
2022/11/27 13:46:29;;;;;;;63.38;29.98;;;;;;;5.66;100.00;100083.11;2274249;77;21003;-58